sensor_id;sensor_type;location;lat;lon;timestamp;temperature;humidity
28548;DHT22;68292;49.600;8.746;2024-01-27T00:02:05;14.00;51.70
28548;DHT22;68292;49.600;8.746;2024-01-27T00:04:35;14.00;51.60
28548;DHT22;68292;49.600;8.746;2024-01-27T00:07:04;14.00;51.50
28548;DHT22;68292;49.600;8.746;2024-01-27T00:09:33;14.00;51.60
28548;DHT22;68292;49.600;8.746;2024-01-27T00:12:04;14.00;51.60
28548;DHT22;68292;49.600;8.746;2024-01-27T00:14:33;14.00;51.50
28548;DHT22;68292;49.600;8.746;2024-01-27T00:17:02;14.00;51.50
28548;DHT22;68292;49.600;8.746;2024-01-27T00:19:31;13.90;51.40
28548;DHT22;68292;49.600;8.746;2024-01-27T00:22:02;13.90;51.50
28548;DHT22;68292;49.600;8.746;2024-01-27T00:24:31;13.90;51.60
28548;DHT22;68292;49.600;8.746;2024-01-27T00:27:00;13.90;51.70
28548;DHT22;68292;49.600;8.746;2024-01-27T00:29:30;13.90;51.60
28548;DHT22;68292;49.600;8.746;2024-01-27T00:31:59;13.90;51.40
28548;DHT22;68292;49.600;8.746;2024-01-27T00:34:27;13.80;51.50
28548;DHT22;68292;49.600;8.746;2024-01-27T00:36:56;13.80;51.50
28548;DHT22;68292;49.600;8.746;2024-01-27T00:39:25;13.80;51.50
28548;DHT22;68292;49.600;8.746;2024-01-27T00:41:55;13.80;51.50
28548;DHT22;68292;49.600;8.746;2024-01-27T00:44:25;13.80;51.50
28548;DHT22;68292;49.600;8.746;2024-01-27T00:46:55;13.80;51.50
28548;DHT22;68292;49.600;8.746;2024-01-27T00:49:24;13.80;51.20
28548;DHT22;68292;49.600;8.746;2024-01-27T00:51:53;13.70;51.30
28548;DHT22;68292;49.600;8.746;2024-01-27T00:54:22;13.70;51.30
28548;DHT22;68292;49.600;8.746;2024-01-27T00:56:53;13.70;51.20
28548;DHT22;68292;49.600;8.746;2024-01-27T00:59:22;13.70;51.10
28548;DHT22;68292;49.600;8.746;2024-01-27T01:01:50;13.60;51.10
28548;DHT22;68292;49.600;8.746;2024-01-27T01:04:20;13.60;51.10
28548;DHT22;68292;49.600;8.746;2024-01-27T01:06:49;13.60;51.00
28548;DHT22;68292;49.600;8.746;2024-01-27T01:09:18;13.50;51.10
28548;DHT22;68292;49.600;8.746;2024-01-27T01:11:47;13.50;51.10
28548;DHT22;68292;49.600;8.746;2024-01-27T01:14:16;13.50;51.20
28548;DHT22;68292;49.600;8.746;2024-01-27T01:16:44;13.40;51.20
28548;DHT22;68292;49.600;8.746;2024-01-27T01:19:13;13.40;51.30
28548;DHT22;68292;49.600;8.746;2024-01-27T01:21:44;13.30;51.40
28548;DHT22;68292;49.600;8.746;2024-01-27T01:24:12;13.30;51.40
28548;DHT22;68292;49.600;8.746;2024-01-27T01:26:41;13.30;51.50
28548;DHT22;68292;49.600;8.746;2024-01-27T01:29:10;13.30;51.60
28548;DHT22;68292;49.600;8.746;2024-01-27T01:31:41;13.30;51.50
28548;DHT22;68292;49.600;8.746;2024-01-27T01:34:10;13.30;51.40
28548;DHT22;68292;49.600;8.746;2024-01-27T01:36:39;13.30;51.40
28548;DHT22;68292;49.600;8.746;2024-01-27T01:39:10;13.30;51.30
28548;DHT22;68292;49.600;8.746;2024-01-27T01:41:40;13.30;51.20
28548;DHT22;68292;49.600;8.746;2024-01-27T01:44:08;13.30;51.30
28548;DHT22;68292;49.600;8.746;2024-01-27T01:46:37;13.30;51.40
28548;DHT22;68292;49.600;8.746;2024-01-27T01:49:06;13.30;51.40
28548;DHT22;68292;49.600;8.746;2024-01-27T01:51:35;13.30;51.40
28548;DHT22;68292;49.600;8.746;2024-01-27T01:54:05;13.30;51.30
28548;DHT22;68292;49.600;8.746;2024-01-27T01:56:36;13.30;51.30
28548;DHT22;68292;49.600;8.746;2024-01-27T01:59:05;13.20;51.10
28548;DHT22;68292;49.600;8.746;2024-01-27T02:01:34;13.20;51.10
28548;DHT22;68292;49.600;8.746;2024-01-27T02:04:04;13.20;51.00
28548;DHT22;68292;49.600;8.746;2024-01-27T02:06:33;13.20;50.80
28548;DHT22;68292;49.600;8.746;2024-01-27T02:09:02;13.20;51.00
28548;DHT22;68292;49.600;8.746;2024-01-27T02:11:32;13.20;51.10
28548;DHT22;68292;49.600;8.746;2024-01-27T02:14:02;13.10;51.10
28548;DHT22;68292;49.600;8.746;2024-01-27T02:16:32;13.10;50.80
28548;DHT22;68292;49.600;8.746;2024-01-27T02:19:01;13.10;50.90
28548;DHT22;68292;49.600;8.746;2024-01-27T02:21:30;13.10;50.90
28548;DHT22;68292;49.600;8.746;2024-01-27T02:23:59;13.00;50.80
28548;DHT22;68292;49.600;8.746;2024-01-27T02:26:29;13.00;50.80
28548;DHT22;68292;49.600;8.746;2024-01-27T02:28:58;13.00;50.80
28548;DHT22;68292;49.600;8.746;2024-01-27T02:31:26;13.00;50.80
28548;DHT22;68292;49.600;8.746;2024-01-27T02:33:55;13.00;50.80
28548;DHT22;68292;49.600;8.746;2024-01-27T02:36:24;12.90;50.70
28548;DHT22;68292;49.600;8.746;2024-01-27T02:38:53;12.90;50.60
28548;DHT22;68292;49.600;8.746;2024-01-27T02:41:22;12.90;50.70
28548;DHT22;68292;49.600;8.746;2024-01-27T02:43:52;12.80;50.70
28548;DHT22;68292;49.600;8.746;2024-01-27T02:46:20;12.80;50.50
28548;DHT22;68292;49.600;8.746;2024-01-27T02:48:49;12.80;50.70
28548;DHT22;68292;49.600;8.746;2024-01-27T02:51:19;12.80;50.80
28548;DHT22;68292;49.600;8.746;2024-01-27T02:53:48;12.80;50.80
28548;DHT22;68292;49.600;8.746;2024-01-27T02:56:17;12.70;50.80
28548;DHT22;68292;49.600;8.746;2024-01-27T02:58:46;12.80;50.80
28548;DHT22;68292;49.600;8.746;2024-01-27T03:01:16;12.80;50.90
28548;DHT22;68292;49.600;8.746;2024-01-27T03:03:45;12.80;50.70
28548;DHT22;68292;49.600;8.746;2024-01-27T03:06:14;12.70;50.60
28548;DHT22;68292;49.600;8.746;2024-01-27T03:08:43;12.70;50.50
28548;DHT22;68292;49.600;8.746;2024-01-27T03:11:12;12.70;50.40
28548;DHT22;68292;49.600;8.746;2024-01-27T03:13:40;12.70;50.40
28548;DHT22;68292;49.600;8.746;2024-01-27T03:16:12;12.60;50.40
28548;DHT22;68292;49.600;8.746;2024-01-27T03:18:43;12.60;50.40
28548;DHT22;68292;49.600;8.746;2024-01-27T03:21:12;12.60;50.20
28548;DHT22;68292;49.600;8.746;2024-01-27T03:23:40;12.60;50.40
28548;DHT22;68292;49.600;8.746;2024-01-27T03:26:09;12.50;50.40
28548;DHT22;68292;49.600;8.746;2024-01-27T03:28:38;12.50;50.40
28548;DHT22;68292;49.600;8.746;2024-01-27T03:31:06;12.50;50.50
28548;DHT22;68292;49.600;8.746;2024-01-27T03:33:35;12.50;50.50
28548;DHT22;68292;49.600;8.746;2024-01-27T03:36:10;12.40;50.40
28548;DHT22;68292;49.600;8.746;2024-01-27T03:38:40;12.40;50.20
28548;DHT22;68292;49.600;8.746;2024-01-27T03:41:09;12.40;50.40
28548;DHT22;68292;49.600;8.746;2024-01-27T03:43:38;12.40;50.50
28548;DHT22;68292;49.600;8.746;2024-01-27T03:46:07;12.40;50.40
28548;DHT22;68292;49.600;8.746;2024-01-27T03:48:36;12.30;50.40
28548;DHT22;68292;49.600;8.746;2024-01-27T03:51:05;12.30;50.50
28548;DHT22;68292;49.600;8.746;2024-01-27T03:53:36;12.30;50.40
28548;DHT22;68292;49.600;8.746;2024-01-27T03:56:05;12.30;50.40
28548;DHT22;68292;49.600;8.746;2024-01-27T03:58:34;12.20;50.50
28548;DHT22;68292;49.600;8.746;2024-01-27T04:01:03;12.20;50.40
28548;DHT22;68292;49.600;8.746;2024-01-27T04:03:32;12.20;50.40
28548;DHT22;68292;49.600;8.746;2024-01-27T04:06:01;12.10;50.50
28548;DHT22;68292;49.600;8.746;2024-01-27T04:08:30;12.20;50.50
28548;DHT22;68292;49.600;8.746;2024-01-27T04:11:00;12.10;50.60
28548;DHT22;68292;49.600;8.746;2024-01-27T04:13:29;12.10;50.40
28548;DHT22;68292;49.600;8.746;2024-01-27T04:15:58;12.10;50.50
28548;DHT22;68292;49.600;8.746;2024-01-27T04:18:28;12.10;50.40
28548;DHT22;68292;49.600;8.746;2024-01-27T04:20:58;12.10;50.40
28548;DHT22;68292;49.600;8.746;2024-01-27T04:23:26;12.00;50.30
28548;DHT22;68292;49.600;8.746;2024-01-27T04:25:55;12.00;50.20
28548;DHT22;68292;49.600;8.746;2024-01-27T04:28:25;12.00;50.20
28548;DHT22;68292;49.600;8.746;2024-01-27T04:30:54;12.00;50.10
28548;DHT22;68292;49.600;8.746;2024-01-27T04:33:23;11.90;50.20
28548;DHT22;68292;49.600;8.746;2024-01-27T04:35:51;12.00;50.40
28548;DHT22;68292;49.600;8.746;2024-01-27T04:38:20;11.90;50.40
28548;DHT22;68292;49.600;8.746;2024-01-27T04:40:50;11.90;50.30
28548;DHT22;68292;49.600;8.746;2024-01-27T04:43:19;11.90;50.20
28548;DHT22;68292;49.600;8.746;2024-01-27T04:45:49;11.90;50.20
28548;DHT22;68292;49.600;8.746;2024-01-27T04:48:18;11.90;49.90
28548;DHT22;68292;49.600;8.746;2024-01-27T04:50:47;11.90;50.10
28548;DHT22;68292;49.600;8.746;2024-01-27T04:53:16;11.80;50.00
28548;DHT22;68292;49.600;8.746;2024-01-27T04:55:44;11.80;50.10
28548;DHT22;68292;49.600;8.746;2024-01-27T04:58:13;11.80;50.10
28548;DHT22;68292;49.600;8.746;2024-01-27T05:00:42;11.70;50.10
28548;DHT22;68292;49.600;8.746;2024-01-27T05:03:12;11.70;50.10
28548;DHT22;68292;49.600;8.746;2024-01-27T05:05:42;11.70;50.00
28548;DHT22;68292;49.600;8.746;2024-01-27T05:08:11;11.70;50.10
28548;DHT22;68292;49.600;8.746;2024-01-27T05:10:40;11.60;50.00
28548;DHT22;68292;49.600;8.746;2024-01-27T05:13:09;11.70;50.10
28548;DHT22;68292;49.600;8.746;2024-01-27T05:15:38;11.60;50.20
28548;DHT22;68292;49.600;8.746;2024-01-27T05:18:07;11.60;50.20
28548;DHT22;68292;49.600;8.746;2024-01-27T05:20:38;11.60;50.30
28548;DHT22;68292;49.600;8.746;2024-01-27T05:23:07;11.60;50.10
28548;DHT22;68292;49.600;8.746;2024-01-27T05:25:36;11.60;50.20
28548;DHT22;68292;49.600;8.746;2024-01-27T05:28:06;11.60;50.10
28548;DHT22;68292;49.600;8.746;2024-01-27T05:30:34;11.50;50.00
28548;DHT22;68292;49.600;8.746;2024-01-27T05:33:03;11.60;50.20
28548;DHT22;68292;49.600;8.746;2024-01-27T05:35:32;11.50;50.10
28548;DHT22;68292;49.600;8.746;2024-01-27T05:38:03;11.50;50.10
28548;DHT22;68292;49.600;8.746;2024-01-27T05:40:32;11.50;49.90
28548;DHT22;68292;49.600;8.746;2024-01-27T05:43:03;11.50;49.90
28548;DHT22;68292;49.600;8.746;2024-01-27T05:45:31;11.50;49.90
28548;DHT22;68292;49.600;8.746;2024-01-27T05:48:00;11.50;49.90
28548;DHT22;68292;49.600;8.746;2024-01-27T05:50:29;11.40;49.90
28548;DHT22;68292;49.600;8.746;2024-01-27T05:52:59;11.40;49.90
28548;DHT22;68292;49.600;8.746;2024-01-27T05:55:29;11.40;49.80
28548;DHT22;68292;49.600;8.746;2024-01-27T05:57:58;11.40;49.80
28548;DHT22;68292;49.600;8.746;2024-01-27T06:00:26;11.40;49.90
28548;DHT22;68292;49.600;8.746;2024-01-27T06:02:55;11.40;49.90
28548;DHT22;68292;49.600;8.746;2024-01-27T06:05:24;11.40;50.00
28548;DHT22;68292;49.600;8.746;2024-01-27T06:07:53;11.40;50.00
28548;DHT22;68292;49.600;8.746;2024-01-27T06:10:21;11.40;50.10
28548;DHT22;68292;49.600;8.746;2024-01-27T06:12:53;11.40;50.20
28548;DHT22;68292;49.600;8.746;2024-01-27T06:15:21;11.40;50.00
28548;DHT22;68292;49.600;8.746;2024-01-27T06:17:50;11.40;50.10
28548;DHT22;68292;49.600;8.746;2024-01-27T06:20:19;11.40;50.10
28548;DHT22;68292;49.600;8.746;2024-01-27T06:22:48;11.40;50.10
28548;DHT22;68292;49.600;8.746;2024-01-27T06:25:17;11.40;50.10
28548;DHT22;68292;49.600;8.746;2024-01-27T06:27:46;11.40;50.00
28548;DHT22;68292;49.600;8.746;2024-01-27T06:30:16;11.40;49.90
28548;DHT22;68292;49.600;8.746;2024-01-27T06:32:46;11.40;49.60
28548;DHT22;68292;49.600;8.746;2024-01-27T06:35:16;11.40;49.60
28548;DHT22;68292;49.600;8.746;2024-01-27T06:37:44;11.40;49.70
28548;DHT22;68292;49.600;8.746;2024-01-27T06:40:14;11.40;50.40
28548;DHT22;68292;49.600;8.746;2024-01-27T06:42:43;11.30;49.80
28548;DHT22;68292;49.600;8.746;2024-01-27T06:45:12;11.30;49.90
28548;DHT22;68292;49.600;8.746;2024-01-27T06:47:42;11.30;49.70
28548;DHT22;68292;49.600;8.746;2024-01-27T06:50:11;11.30;49.50
28548;DHT22;68292;49.600;8.746;2024-01-27T06:52:41;11.30;49.60
28548;DHT22;68292;49.600;8.746;2024-01-27T06:55:09;11.30;49.70
28548;DHT22;68292;49.600;8.746;2024-01-27T06:57:38;11.30;49.70
28548;DHT22;68292;49.600;8.746;2024-01-27T07:00:09;11.20;49.40
28548;DHT22;68292;49.600;8.746;2024-01-27T07:02:43;11.20;49.40
28548;DHT22;68292;49.600;8.746;2024-01-27T07:05:12;11.20;49.50
28548;DHT22;68292;49.600;8.746;2024-01-27T07:07:42;11.20;49.60
28548;DHT22;68292;49.600;8.746;2024-01-27T07:10:11;11.20;49.60
28548;DHT22;68292;49.600;8.746;2024-01-27T07:12:39;11.20;49.60
28548;DHT22;68292;49.600;8.746;2024-01-27T07:15:09;11.10;49.50
28548;DHT22;68292;49.600;8.746;2024-01-27T07:17:38;11.10;49.40
28548;DHT22;68292;49.600;8.746;2024-01-27T07:20:09;11.10;49.40
28548;DHT22;68292;49.600;8.746;2024-01-27T07:22:39;11.10;49.20
28548;DHT22;68292;49.600;8.746;2024-01-27T07:25:07;11.10;49.40
28548;DHT22;68292;49.600;8.746;2024-01-27T07:27:37;11.00;49.30
28548;DHT22;68292;49.600;8.746;2024-01-27T07:30:07;11.00;49.40
28548;DHT22;68292;49.600;8.746;2024-01-27T07:32:38;11.00;49.50
28548;DHT22;68292;49.600;8.746;2024-01-27T07:35:09;11.00;49.50
28548;DHT22;68292;49.600;8.746;2024-01-27T07:37:38;11.00;49.40
28548;DHT22;68292;49.600;8.746;2024-01-27T07:40:10;11.00;49.50
28548;DHT22;68292;49.600;8.746;2024-01-27T07:42:39;11.00;49.50
28548;DHT22;68292;49.600;8.746;2024-01-27T07:45:08;11.00;49.60
28548;DHT22;68292;49.600;8.746;2024-01-27T07:47:37;11.00;49.70
28548;DHT22;68292;49.600;8.746;2024-01-27T07:50:07;11.00;49.70
28548;DHT22;68292;49.600;8.746;2024-01-27T07:52:38;11.00;49.70
28548;DHT22;68292;49.600;8.746;2024-01-27T07:55:07;11.00;49.70
28548;DHT22;68292;49.600;8.746;2024-01-27T07:57:37;11.00;49.80
28548;DHT22;68292;49.600;8.746;2024-01-27T08:00:07;11.00;49.90
28548;DHT22;68292;49.600;8.746;2024-01-27T08:02:36;11.00;50.00
28548;DHT22;68292;49.600;8.746;2024-01-27T08:05:05;11.00;50.10
28548;DHT22;68292;49.600;8.746;2024-01-27T08:07:35;11.00;50.10
28548;DHT22;68292;49.600;8.746;2024-01-27T08:10:05;11.10;50.10
28548;DHT22;68292;49.600;8.746;2024-01-27T08:12:38;11.10;50.20
28548;DHT22;68292;49.600;8.746;2024-01-27T08:15:07;11.10;50.20
28548;DHT22;68292;49.600;8.746;2024-01-27T08:17:36;11.10;50.20
28548;DHT22;68292;49.600;8.746;2024-01-27T08:20:06;11.20;50.30
28548;DHT22;68292;49.600;8.746;2024-01-27T08:22:37;11.20;50.20
28548;DHT22;68292;49.600;8.746;2024-01-27T08:25:06;11.30;50.30
28548;DHT22;68292;49.600;8.746;2024-01-27T08:27:36;11.30;50.40
28548;DHT22;68292;49.600;8.746;2024-01-27T08:30:05;11.30;50.50
28548;DHT22;68292;49.600;8.746;2024-01-27T08:32:36;11.40;50.50
28548;DHT22;68292;49.600;8.746;2024-01-27T08:35:05;11.40;50.50
28548;DHT22;68292;49.600;8.746;2024-01-27T08:37:39;11.50;50.50
28548;DHT22;68292;49.600;8.746;2024-01-27T08:40:08;11.50;50.40
28548;DHT22;68292;49.600;8.746;2024-01-27T08:42:39;11.60;50.60
28548;DHT22;68292;49.600;8.746;2024-01-27T08:45:08;11.60;50.60
28548;DHT22;68292;49.600;8.746;2024-01-27T08:47:37;11.60;50.60
28548;DHT22;68292;49.600;8.746;2024-01-27T08:50:06;11.70;50.60
28548;DHT22;68292;49.600;8.746;2024-01-27T08:52:37;11.70;50.60
28548;DHT22;68292;49.600;8.746;2024-01-27T08:55:07;11.80;50.60
28548;DHT22;68292;49.600;8.746;2024-01-27T08:57:36;11.80;50.50
28548;DHT22;68292;49.600;8.746;2024-01-27T09:00:06;11.90;50.60
28548;DHT22;68292;49.600;8.746;2024-01-27T09:02:36;11.90;50.60
28548;DHT22;68292;49.600;8.746;2024-01-27T09:05:05;12.00;50.60
28548;DHT22;68292;49.600;8.746;2024-01-27T09:07:35;12.10;50.80
28548;DHT22;68292;49.600;8.746;2024-01-27T09:10:06;12.10;50.70
28548;DHT22;68292;49.600;8.746;2024-01-27T09:12:36;12.20;50.60
28548;DHT22;68292;49.600;8.746;2024-01-27T09:15:06;12.30;50.80
28548;DHT22;68292;49.600;8.746;2024-01-27T09:17:35;12.30;50.80
28548;DHT22;68292;49.600;8.746;2024-01-27T09:20:05;12.40;50.80
28548;DHT22;68292;49.600;8.746;2024-01-27T09:22:35;12.50;50.80
28548;DHT22;68292;49.600;8.746;2024-01-27T09:25:06;12.50;50.80
28548;DHT22;68292;49.600;8.746;2024-01-27T09:27:35;12.60;50.70
28548;DHT22;68292;49.600;8.746;2024-01-27T09:30:05;12.70;50.80
28548;DHT22;68292;49.600;8.746;2024-01-27T09:32:35;12.70;50.80
28548;DHT22;68292;49.600;8.746;2024-01-27T09:35:05;12.80;50.90
28548;DHT22;68292;49.600;8.746;2024-01-27T09:37:34;12.80;50.80
28548;DHT22;68292;49.600;8.746;2024-01-27T09:40:05;12.90;50.90
28548;DHT22;68292;49.600;8.746;2024-01-27T09:42:37;13.00;50.90
28548;DHT22;68292;49.600;8.746;2024-01-27T09:45:09;13.00;50.70
28548;DHT22;68292;49.600;8.746;2024-01-27T09:47:38;13.10;50.70
28548;DHT22;68292;49.600;8.746;2024-01-27T09:50:11;13.10;50.80
28548;DHT22;68292;49.600;8.746;2024-01-27T09:52:40;13.20;50.60
28548;DHT22;68292;49.600;8.746;2024-01-27T09:55:10;13.20;50.70
28548;DHT22;68292;49.600;8.746;2024-01-27T09:57:40;13.20;50.60
28548;DHT22;68292;49.600;8.746;2024-01-27T10:00:10;13.30;50.60
28548;DHT22;68292;49.600;8.746;2024-01-27T10:02:40;13.30;50.60
28548;DHT22;68292;49.600;8.746;2024-01-27T10:05:09;13.30;50.60
28548;DHT22;68292;49.600;8.746;2024-01-27T10:07:40;13.40;50.60
28548;DHT22;68292;49.600;8.746;2024-01-27T10:10:11;13.40;50.70
28548;DHT22;68292;49.600;8.746;2024-01-27T10:12:41;13.40;50.80
28548;DHT22;68292;49.600;8.746;2024-01-27T10:15:28;13.40;50.80
28548;DHT22;68292;49.600;8.746;2024-01-27T10:18:04;13.40;50.80
28548;DHT22;68292;49.600;8.746;2024-01-27T10:20:35;13.50;51.00
28548;DHT22;68292;49.600;8.746;2024-01-27T10:23:13;13.50;51.00
28548;DHT22;68292;49.600;8.746;2024-01-27T10:25:44;13.60;50.90
28548;DHT22;68292;49.600;8.746;2024-01-27T10:28:12;13.60;51.10
28548;DHT22;68292;49.600;8.746;2024-01-27T10:30:41;13.70;51.10
28548;DHT22;68292;49.600;8.746;2024-01-27T10:33:11;13.70;51.10
28548;DHT22;68292;49.600;8.746;2024-01-27T10:35:41;13.80;51.20
28548;DHT22;68292;49.600;8.746;2024-01-27T10:38:10;13.80;51.20
28548;DHT22;68292;49.600;8.746;2024-01-27T10:40:39;13.90;51.20
28548;DHT22;68292;49.600;8.746;2024-01-27T10:43:09;13.90;51.10
28548;DHT22;68292;49.600;8.746;2024-01-27T10:45:39;13.90;51.10
28548;DHT22;68292;49.600;8.746;2024-01-27T10:48:10;14.00;51.10
28548;DHT22;68292;49.600;8.746;2024-01-27T10:50:40;14.10;51.10
28548;DHT22;68292;49.600;8.746;2024-01-27T10:53:21;14.10;51.10
28548;DHT22;68292;49.600;8.746;2024-01-27T10:55:53;14.20;50.90
28548;DHT22;68292;49.600;8.746;2024-01-27T10:58:26;14.20;50.90
28548;DHT22;68292;49.600;8.746;2024-01-27T11:00:56;14.30;50.90
28548;DHT22;68292;49.600;8.746;2024-01-27T11:03:25;14.30;51.00
28548;DHT22;68292;49.600;8.746;2024-01-27T11:05:57;14.30;50.90
28548;DHT22;68292;49.600;8.746;2024-01-27T11:08:26;14.40;50.80
28548;DHT22;68292;49.600;8.746;2024-01-27T11:10:58;14.40;50.80
28548;DHT22;68292;49.600;8.746;2024-01-27T11:13:28;14.50;50.80
28548;DHT22;68292;49.600;8.746;2024-01-27T11:15:58;14.50;50.70
28548;DHT22;68292;49.600;8.746;2024-01-27T11:18:27;14.50;50.60
28548;DHT22;68292;49.600;8.746;2024-01-27T11:20:58;14.50;50.50
28548;DHT22;68292;49.600;8.746;2024-01-27T11:23:35;14.60;50.40
28548;DHT22;68292;49.600;8.746;2024-01-27T11:26:05;14.60;50.20
28548;DHT22;68292;49.600;8.746;2024-01-27T11:28:36;14.60;51.00
28548;DHT22;68292;49.600;8.746;2024-01-27T11:31:06;14.70;50.40
28548;DHT22;68292;49.600;8.746;2024-01-27T11:33:41;14.70;50.40
28548;DHT22;68292;49.600;8.746;2024-01-27T11:36:19;14.70;50.20
28548;DHT22;68292;49.600;8.746;2024-01-27T11:38:50;14.70;50.00
28548;DHT22;68292;49.600;8.746;2024-01-27T11:41:27;14.70;50.20
28548;DHT22;68292;49.600;8.746;2024-01-27T11:43:58;14.70;49.80
28548;DHT22;68292;49.600;8.746;2024-01-27T11:46:28;14.70;49.90
28548;DHT22;68292;49.600;8.746;2024-01-27T11:48:57;14.70;50.00
28548;DHT22;68292;49.600;8.746;2024-01-27T11:51:26;14.70;50.10
28548;DHT22;68292;49.600;8.746;2024-01-27T11:53:55;14.70;50.10
28548;DHT22;68292;49.600;8.746;2024-01-27T11:56:24;14.70;50.10
28548;DHT22;68292;49.600;8.746;2024-01-27T11:58:54;14.70;50.00
28548;DHT22;68292;49.600;8.746;2024-01-27T12:01:25;14.70;50.00
28548;DHT22;68292;49.600;8.746;2024-01-27T12:03:53;14.70;49.80
28548;DHT22;68292;49.600;8.746;2024-01-27T12:06:23;14.80;50.10
28548;DHT22;68292;49.600;8.746;2024-01-27T12:08:53;14.80;50.10
28548;DHT22;68292;49.600;8.746;2024-01-27T12:11:25;14.80;50.10
28548;DHT22;68292;49.600;8.746;2024-01-27T12:13:54;14.80;50.10
28548;DHT22;68292;49.600;8.746;2024-01-27T12:16:24;14.80;50.00
28548;DHT22;68292;49.600;8.746;2024-01-27T12:18:53;14.80;49.80
28548;DHT22;68292;49.600;8.746;2024-01-27T12:21:23;14.80;49.80
28548;DHT22;68292;49.600;8.746;2024-01-27T12:23:52;14.80;49.80
28548;DHT22;68292;49.600;8.746;2024-01-27T12:26:23;14.80;49.80
28548;DHT22;68292;49.600;8.746;2024-01-27T12:28:54;14.80;49.60
28548;DHT22;68292;49.600;8.746;2024-01-27T12:31:27;14.80;49.50
28548;DHT22;68292;49.600;8.746;2024-01-27T12:33:56;14.80;49.50
28548;DHT22;68292;49.600;8.746;2024-01-27T12:36:27;14.80;49.50
28548;DHT22;68292;49.600;8.746;2024-01-27T12:38:57;14.80;49.40
28548;DHT22;68292;49.600;8.746;2024-01-27T12:41:27;14.80;49.20
28548;DHT22;68292;49.600;8.746;2024-01-27T12:43:56;14.80;49.10
28548;DHT22;68292;49.600;8.746;2024-01-27T12:46:27;14.80;48.90
28548;DHT22;68292;49.600;8.746;2024-01-27T12:48:56;14.80;48.70
28548;DHT22;68292;49.600;8.746;2024-01-27T12:51:25;14.90;48.90
28548;DHT22;68292;49.600;8.746;2024-01-27T12:53:54;14.90;48.90
28548;DHT22;68292;49.600;8.746;2024-01-27T12:56:22;14.90;48.80
28548;DHT22;68292;49.600;8.746;2024-01-27T12:58:51;14.90;48.70
28548;DHT22;68292;49.600;8.746;2024-01-27T13:01:20;14.80;48.60
28548;DHT22;68292;49.600;8.746;2024-01-27T13:03:51;14.90;48.60
28548;DHT22;68292;49.600;8.746;2024-01-27T13:06:20;14.90;48.50
28548;DHT22;68292;49.600;8.746;2024-01-27T13:08:50;14.90;48.60
28548;DHT22;68292;49.600;8.746;2024-01-27T13:11:20;14.90;48.60
28548;DHT22;68292;49.600;8.746;2024-01-27T13:13:49;14.90;48.60
28548;DHT22;68292;49.600;8.746;2024-01-27T13:16:17;14.90;48.70
28548;DHT22;68292;49.600;8.746;2024-01-27T13:18:46;14.90;48.70
28548;DHT22;68292;49.600;8.746;2024-01-27T13:21:16;14.90;48.80
28548;DHT22;68292;49.600;8.746;2024-01-27T13:23:46;14.90;48.40
28548;DHT22;68292;49.600;8.746;2024-01-27T13:26:14;14.90;48.50
28548;DHT22;68292;49.600;8.746;2024-01-27T13:28:46;14.90;48.40
28548;DHT22;68292;49.600;8.746;2024-01-27T13:31:16;14.90;48.40
28548;DHT22;68292;49.600;8.746;2024-01-27T13:33:46;14.90;48.60
28548;DHT22;68292;49.600;8.746;2024-01-27T13:36:17;14.80;48.50
28548;DHT22;68292;49.600;8.746;2024-01-27T13:38:46;14.80;48.40
28548;DHT22;68292;49.600;8.746;2024-01-27T13:41:14;14.80;48.60
28548;DHT22;68292;49.600;8.746;2024-01-27T13:43:46;14.90;48.80
28548;DHT22;68292;49.600;8.746;2024-01-27T13:46:16;14.90;48.90
28548;DHT22;68292;49.600;8.746;2024-01-27T13:48:44;14.80;48.80
28548;DHT22;68292;49.600;8.746;2024-01-27T13:51:14;14.80;48.70
28548;DHT22;68292;49.600;8.746;2024-01-27T13:53:51;14.90;48.80
28548;DHT22;68292;49.600;8.746;2024-01-27T13:56:20;14.80;49.40
28548;DHT22;68292;49.600;8.746;2024-01-27T13:58:48;14.80;48.80
28548;DHT22;68292;49.600;8.746;2024-01-27T14:01:19;14.80;48.90
28548;DHT22;68292;49.600;8.746;2024-01-27T14:03:48;14.80;49.00
28548;DHT22;68292;49.600;8.746;2024-01-27T14:06:17;14.80;49.00
28548;DHT22;68292;49.600;8.746;2024-01-27T14:08:45;14.80;49.10
28548;DHT22;68292;49.600;8.746;2024-01-27T14:11:18;14.80;49.10
28548;DHT22;68292;49.600;8.746;2024-01-27T14:13:48;14.80;49.10
28548;DHT22;68292;49.600;8.746;2024-01-27T14:16:18;14.80;49.10
28548;DHT22;68292;49.600;8.746;2024-01-27T14:18:48;14.80;49.10
28548;DHT22;68292;49.600;8.746;2024-01-27T14:21:17;14.80;49.20
28548;DHT22;68292;49.600;8.746;2024-01-27T14:23:46;14.80;49.00
28548;DHT22;68292;49.600;8.746;2024-01-27T14:26:19;14.80;48.90
28548;DHT22;68292;49.600;8.746;2024-01-27T14:28:48;14.80;48.70
28548;DHT22;68292;49.600;8.746;2024-01-27T14:31:17;14.80;48.80
28548;DHT22;68292;49.600;8.746;2024-01-27T14:33:45;14.80;48.90
28548;DHT22;68292;49.600;8.746;2024-01-27T14:36:17;14.80;48.70
28548;DHT22;68292;49.600;8.746;2024-01-27T14:38:48;14.80;48.90
28548;DHT22;68292;49.600;8.746;2024-01-27T14:41:24;14.80;48.90
28548;DHT22;68292;49.600;8.746;2024-01-27T14:43:53;14.70;48.50
28548;DHT22;68292;49.600;8.746;2024-01-27T14:46:22;14.70;48.90
28548;DHT22;68292;49.600;8.746;2024-01-27T14:48:51;14.70;48.90
28548;DHT22;68292;49.600;8.746;2024-01-27T14:51:21;14.70;48.80
28548;DHT22;68292;49.600;8.746;2024-01-27T14:53:50;14.70;48.70
28548;DHT22;68292;49.600;8.746;2024-01-27T14:56:19;14.70;48.60
28548;DHT22;68292;49.600;8.746;2024-01-27T14:58:49;14.70;48.60
28548;DHT22;68292;49.600;8.746;2024-01-27T15:01:19;14.70;48.50
28548;DHT22;68292;49.600;8.746;2024-01-27T15:03:48;14.70;48.60
28548;DHT22;68292;49.600;8.746;2024-01-27T15:06:17;14.60;48.60
28548;DHT22;68292;49.600;8.746;2024-01-27T15:08:46;14.60;48.60
28548;DHT22;68292;49.600;8.746;2024-01-27T15:11:15;14.60;48.60
28548;DHT22;68292;49.600;8.746;2024-01-27T15:13:43;14.60;48.60
28548;DHT22;68292;49.600;8.746;2024-01-27T15:16:14;14.60;48.40
28548;DHT22;68292;49.600;8.746;2024-01-27T15:18:42;14.60;48.40
28548;DHT22;68292;49.600;8.746;2024-01-27T15:21:11;14.60;48.40
28548;DHT22;68292;49.600;8.746;2024-01-27T15:23:40;14.60;48.40
28548;DHT22;68292;49.600;8.746;2024-01-27T15:26:10;14.60;48.30
28548;DHT22;68292;49.600;8.746;2024-01-27T15:28:39;14.60;48.10
28548;DHT22;68292;49.600;8.746;2024-01-27T15:31:08;14.60;48.20
28548;DHT22;68292;49.600;8.746;2024-01-27T15:33:38;14.60;48.10
28548;DHT22;68292;49.600;8.746;2024-01-27T15:36:07;14.60;48.10
28548;DHT22;68292;49.600;8.746;2024-01-27T15:38:37;14.70;48.10
28548;DHT22;68292;49.600;8.746;2024-01-27T15:41:06;14.60;47.90
28548;DHT22;68292;49.600;8.746;2024-01-27T15:43:35;14.60;47.90
28548;DHT22;68292;49.600;8.746;2024-01-27T15:46:05;14.60;47.90